createdAt,value
2023-01-30T00:01:07.453Z,98001.19
2023-01-30T00:04:09.765Z,98002.03
2023-01-30T00:07:11.283Z,97998.03
2023-01-30T00:10:12.977Z,97982.84
2023-01-30T00:13:15.317Z,97969.41
2023-01-30T00:16:18.427Z,97958.13
2023-01-30T00:19:19.956Z,97952.06
2023-01-30T00:22:21.448Z,97934.69
2023-01-30T00:25:23.046Z,97921.91
2023-01-30T00:28:25.245Z,97922.31
2023-01-30T00:31:26.822Z,97924.13
2023-01-30T00:34:28.365Z,97922.69
2023-01-30T00:37:29.889Z,97918.09
2023-01-30T00:40:32.529Z,97923.94
2023-01-30T00:47:38.535Z,97916.75
2023-01-30T00:50:42.756Z,97913.16
2023-01-30T00:53:46.671Z,97901.22
2023-01-30T00:56:48.927Z,97898.72
2023-01-30T00:59:50.544Z,97894.59
2023-01-30T01:02:52.133Z,97904.78
2023-01-30T01:05:53.713Z,97880.38
2023-01-30T01:08:55.332Z,97874.34
2023-01-30T01:11:56.963Z,97868.50
2023-01-30T01:14:58.649Z,97875.94
2023-01-30T01:18:00.243Z,97876.25
2023-01-30T01:21:01.757Z,97873.69
2023-01-30T01:24:03.474Z,97869.84
2023-01-30T01:27:04.993Z,97879.44
2023-01-30T01:30:08.364Z,97901.81
2023-01-30T01:33:11.507Z,97913.97
2023-01-30T01:36:20.018Z,97914.44
2023-01-30T01:39:51.067Z,97942.06
2023-01-30T01:42:52.803Z,97953.03
2023-01-30T01:46:10.199Z,97955.06
2023-01-30T06:38:21.336Z,97948.47
2023-01-30T06:41:22.867Z,97949.00
2023-01-30T06:44:24.396Z,97940.81
2023-01-30T06:47:25.865Z,97938.66
2023-01-30T06:50:28.862Z,97935.75
2023-01-30T06:53:30.788Z,97947.84
2023-01-30T06:56:32.275Z,97941.84
2023-01-30T06:59:33.691Z,97947.84
2023-01-30T07:02:35.528Z,97942.84
2023-01-30T07:05:39.035Z,97927.59
2023-01-30T07:08:41.014Z,97920.25
2023-01-30T07:11:42.632Z,97920.41
2023-01-30T07:14:44.119Z,97917.31
2023-01-30T07:17:45.676Z,97910.44
2023-01-30T07:20:48.619Z,97899.19
2023-01-30T07:23:50.116Z,97885.28
2023-01-30T07:26:51.635Z,97888.81
2023-01-30T07:29:53.408Z,97886.81
2023-01-30T07:32:57.858Z,97880.13
2023-01-30T07:35:59.391Z,97883.31
2023-01-30T07:39:01.602Z,97891.50
2023-01-30T07:42:04.161Z,97897.59
2023-01-30T07:45:06.438Z,97899.84
2023-01-30T07:48:10.193Z,97907.47
2023-01-30T07:51:11.982Z,97904.72
2023-01-30T07:54:13.493Z,97903.22
2023-01-30T07:57:14.984Z,97908.81
2023-01-30T08:00:17.429Z,97930.66
2023-01-30T08:03:19.042Z,97946.28
2023-01-30T08:06:20.614Z,97960.81
2023-01-30T08:09:22.105Z,97951.03
2023-01-30T08:12:23.652Z,97945.03
2023-01-30T08:15:25.123Z,97948.31
2023-01-30T08:18:28.738Z,97944.81
2023-01-30T08:21:30.269Z,97949.59
2023-01-30T08:24:31.708Z,97947.94
2023-01-30T08:27:33.212Z,97948.13
2023-01-30T08:30:34.683Z,97947.09
2023-01-30T08:33:36.276Z,97937.00
2023-01-30T08:36:37.731Z,97931.97
2023-01-30T08:39:39.208Z,97945.19
2023-01-30T08:42:40.897Z,97945.41
2023-01-30T08:45:42.341Z,97937.56
2023-01-30T08:48:50.018Z,97945.72
2023-01-30T08:51:51.839Z,97943.88
2023-01-30T08:54:53.313Z,97959.53
2023-01-30T08:57:56.803Z,97978.59
2023-01-30T09:00:58.374Z,97969.88
2023-01-30T09:03:59.852Z,97966.28
2023-01-30T09:07:01.287Z,97964.72
2023-01-30T09:10:03.042Z,97974.03
2023-01-30T09:13:05.534Z,97981.97
2023-01-30T09:16:07.199Z,97981.34
2023-01-30T09:19:08.692Z,97980.72
2023-01-30T09:22:10.419Z,97979.38
2023-01-30T09:25:12.208Z,97966.53
2023-01-30T09:28:13.936Z,97966.00
2023-01-30T09:31:15.550Z,97965.28
2023-01-30T09:34:17.080Z,97961.63
2023-01-30T09:37:18.572Z,97941.66
2023-01-30T09:40:32.561Z,97939.56
2023-01-30T09:43:41.067Z,97937.34
2023-01-30T09:46:54.678Z,97931.09
2023-01-30T09:50:20.198Z,97935.41
2023-01-30T09:53:55.887Z,97939.34
2023-01-30T09:57:21.308Z,97935.00
2023-01-30T10:00:37.594Z,97912.97
2023-01-30T10:03:59.729Z,97916.38
2023-01-30T10:07:10.098Z,97925.84
2023-01-30T10:10:39.431Z,97930.00
2023-01-30T10:14:10.029Z,97935.63
2023-01-30T10:17:41.134Z,97943.91
2023-01-30T10:21:06.947Z,97941.09
2023-01-30T10:24:23.520Z,97933.25
2023-01-30T10:27:26.118Z,97916.00
2023-01-30T10:30:27.963Z,97907.59
2023-01-30T10:33:36.892Z,97894.69
2023-01-30T10:37:08.501Z,97901.75
2023-01-30T10:40:33.640Z,97893.81
2023-01-30T10:43:42.579Z,97886.59
2023-01-30T10:47:11.451Z,97883.97
2023-01-30T10:50:24.656Z,97882.66
2023-01-30T10:53:42.295Z,97873.84
2023-01-30T10:56:57.185Z,97868.56
2023-01-30T11:00:35.975Z,97855.81
2023-01-30T11:03:44.597Z,97853.69
2023-01-30T11:06:46.499Z,97835.88
2023-01-30T11:09:49.049Z,97837.53
2023-01-30T11:13:14.478Z,97824.78
2023-01-30T11:16:16.753Z,97813.66
2023-01-30T11:19:22.735Z,97819.94
2023-01-30T11:22:28.723Z,97825.97
2023-01-30T11:25:30.280Z,97812.69
2023-01-30T11:28:40.740Z,97790.84
2023-01-30T11:31:42.826Z,97789.03
2023-01-30T11:34:44.613Z,97796.09
2023-01-30T11:37:46.088Z,97774.72
2023-01-30T11:40:47.576Z,97786.47
2023-01-30T11:43:49.199Z,97782.59
2023-01-30T11:46:50.736Z,97780.22
2023-01-30T11:50:16.857Z,97761.56
2023-01-30T11:53:46.533Z,97754.56
2023-01-30T11:56:53.673Z,97750.69
2023-01-30T11:59:58.514Z,97754.34
2023-01-30T12:03:05.615Z,97740.75
2023-01-30T12:06:07.220Z,97750.56
2023-01-30T12:09:38.659Z,97741.69
2023-01-30T12:12:49.450Z,97758.47
2023-01-30T12:15:57.854Z,97777.34
2023-01-30T12:19:12.939Z,97764.19
2023-01-30T12:22:36.158Z,97747.25
2023-01-30T12:25:56.695Z,97775.44
2023-01-30T12:29:03.987Z,97774.75
2023-01-30T12:32:11.270Z,97778.94
2023-01-30T12:35:26.794Z,97791.56
2023-01-30T12:38:49.877Z,97784.56
2023-01-30T12:42:26.090Z,97768.50
2023-01-30T12:45:40.411Z,97767.88
2023-01-30T12:49:11.497Z,97751.28
2023-01-30T12:52:31.985Z,97768.91
2023-01-30T12:55:57.221Z,97755.56
2023-01-30T12:59:10.833Z,97745.16
2023-01-30T13:02:30.779Z,97764.94
2023-01-30T13:05:41.103Z,97744.63
2023-01-30T13:09:02.738Z,97743.31
2023-01-30T13:12:17.082Z,97736.63
2023-01-30T13:15:47.887Z,97739.25
2023-01-30T13:18:57.196Z,97741.88
2023-01-30T13:22:03.383Z,97739.31
2023-01-30T13:25:36.575Z,97745.06
2023-01-30T13:28:47.450Z,97723.31
2023-01-30T13:31:54.853Z,97724.41
2023-01-30T13:34:59.376Z,97725.91
2023-01-30T13:38:03.186Z,97735.44
2023-01-30T13:41:05.841Z,97727.72
2023-01-30T13:44:19.123Z,97732.34
2023-01-30T13:47:32.707Z,97729.72
2023-01-30T13:50:50.611Z,97730.47
2023-01-30T13:54:07.326Z,97741.53
2023-01-30T13:57:39.826Z,97743.09
2023-01-30T14:00:53.615Z,97745.00
2023-01-30T14:03:55.124Z,97743.31
2023-01-30T14:07:20.237Z,97743.81
2023-01-30T14:10:23.698Z,97754.00
2023-01-30T14:13:27.284Z,97752.59
2023-01-30T14:16:43.928Z,97761.50
2023-01-30T14:19:48.466Z,97759.38
2023-01-30T14:22:58.327Z,97775.41
2023-01-30T14:26:00.657Z,97763.06
2023-01-30T14:29:02.111Z,97765.09
2023-01-30T14:32:23.967Z,97767.97
2023-01-30T14:35:30.513Z,97779.47
2023-01-30T14:38:33.117Z,97794.94
2023-01-30T14:41:34.581Z,97791.84
2023-01-30T14:44:55.504Z,97808.47
2023-01-30T14:48:25.051Z,97816.31
2023-01-30T14:51:56.600Z,97808.47
2023-01-30T14:54:58.055Z,97821.81
2023-01-30T14:58:02.714Z,97813.59
2023-01-30T15:01:04.841Z,97816.91
2023-01-30T15:04:06.353Z,97820.13
2023-01-30T15:07:12.255Z,97821.31
2023-01-30T15:10:25.407Z,97827.00
2023-01-30T15:13:55.696Z,97836.75
2023-01-30T15:17:11.963Z,97854.00
2023-01-30T15:20:32.400Z,97858.63
2023-01-30T15:24:09.987Z,97865.75
2023-01-30T15:27:27.399Z,97879.75
2023-01-30T15:30:37.940Z,97881.78
2023-01-30T15:33:47.419Z,97885.69
2023-01-30T15:36:49.101Z,97878.94
2023-01-30T15:39:50.598Z,97893.78
2023-01-30T15:43:01.058Z,97894.22
2023-01-30T15:46:13.127Z,97890.31
2023-01-30T15:49:41.831Z,97892.09
2023-01-30T15:52:48.214Z,97889.47
2023-01-30T15:55:50.868Z,97895.41
2023-01-30T15:58:53.960Z,97903.13
2023-01-30T16:02:28.893Z,97910.56
2023-01-30T16:05:31.115Z,97913.78
2023-01-30T16:08:34.961Z,97920.94
2023-01-30T16:11:40.707Z,97927.69
2023-01-30T16:14:42.132Z,97926.50
2023-01-30T16:17:47.803Z,97931.50
2023-01-30T16:21:01.654Z,97930.28
2023-01-30T16:24:05.313Z,97941.19
2023-01-30T16:27:19.859Z,97944.53
2023-01-30T16:30:25.067Z,97956.78
2023-01-30T16:33:27.310Z,97962.09
2023-01-30T16:36:32.935Z,97960.41
2023-01-30T16:39:37.361Z,97947.84
2023-01-30T16:42:39.146Z,97956.91
2023-01-30T16:45:52.879Z,97968.53
2023-01-30T16:49:04.776Z,97975.41
2023-01-30T16:52:15.337Z,97984.22
2023-01-30T16:55:24.290Z,97990.16
2023-01-30T16:58:32.675Z,97983.97
2023-01-30T17:01:40.532Z,97983.56
2023-01-30T17:04:43.233Z,97991.50
2023-01-30T17:07:45.574Z,97996.13
2023-01-30T17:10:52.005Z,98003.44
2023-01-30T17:14:10.638Z,98011.69
2023-01-30T17:17:14.365Z,98024.94
2023-01-30T17:20:16.537Z,98009.00
2023-01-30T17:23:19.664Z,98018.69
2023-01-30T17:26:21.641Z,98016.38
2023-01-30T17:29:41.446Z,98022.84
2023-01-30T17:32:43.959Z,98020.59
2023-01-30T17:35:45.970Z,98017.88
2023-01-30T17:38:47.806Z,98024.59
2023-01-30T17:41:49.696Z,98037.31
2023-01-30T17:44:51.703Z,98039.31
2023-01-30T17:47:53.164Z,98054.44
2023-01-30T17:50:54.863Z,98045.44
2023-01-30T17:53:56.479Z,98045.44
2023-01-30T17:57:04.192Z,98057.66
2023-01-30T18:00:06.254Z,98057.16
2023-01-30T18:03:10.844Z,98072.63
2023-01-30T18:06:16.048Z,98069.53
2023-01-30T18:09:24.413Z,98062.97
2023-01-30T18:12:26.554Z,98070.22
2023-01-30T18:15:28.133Z,98074.50
2023-01-30T18:18:29.611Z,98067.19
2023-01-30T18:21:33.160Z,98083.78
2023-01-30T18:24:34.695Z,98091.00
2023-01-30T18:27:36.208Z,98082.03
2023-01-30T18:30:37.910Z,98080.13
2023-01-30T18:33:41.062Z,98084.75
2023-01-30T18:36:42.860Z,98080.97
2023-01-30T18:39:44.347Z,98093.81
2023-01-30T18:42:46.407Z,98089.63
2023-01-30T18:45:48.485Z,98087.97
2023-01-30T18:48:49.983Z,98088.09
2023-01-30T18:51:51.515Z,98089.34
2023-01-30T18:54:53.056Z,98095.84
2023-01-30T18:57:54.627Z,98087.16
2023-01-30T19:00:57.843Z,98089.72
2023-01-30T19:04:01.153Z,98092.13
2023-01-30T19:07:02.646Z,98092.75
2023-01-30T19:10:04.509Z,98096.44
2023-01-30T19:13:24.974Z,98096.53
2023-01-30T19:16:28.167Z,98105.19
2023-01-30T19:19:29.702Z,98103.03
2023-01-30T19:22:31.221Z,98111.91
2023-01-30T19:25:32.772Z,98107.53
2023-01-30T19:28:35.415Z,98111.34
2023-01-30T19:31:37.109Z,98111.50
2023-01-30T19:34:38.737Z,98116.72
2023-01-30T19:37:40.288Z,98128.56
2023-01-30T19:40:45.543Z,98134.41
2023-01-30T19:43:47.464Z,98138.47
2023-01-30T19:46:49.354Z,98134.50
2023-01-30T19:49:51.925Z,98139.63
2023-01-30T19:52:53.427Z,98134.50
2023-01-30T19:55:55.108Z,98148.13
2023-01-30T19:58:58.710Z,98154.38
2023-01-30T20:02:00.289Z,98148.84
2023-01-30T20:05:02.623Z,98160.22
2023-01-30T20:08:04.499Z,98159.06
2023-01-30T20:11:08.523Z,98161.47
2023-01-30T20:14:10.912Z,98172.63
2023-01-30T20:17:14.224Z,98165.66
2023-01-30T20:20:17.154Z,98165.84
2023-01-30T20:23:19.572Z,98177.97
2023-01-30T20:26:27.047Z,98170.03
2023-01-30T20:29:28.641Z,98172.97
2023-01-30T20:32:30.868Z,98180.72
2023-01-30T20:35:35.658Z,98190.41
2023-01-30T20:38:39.582Z,98195.78
2023-01-30T20:41:41.193Z,98193.47
2023-01-30T20:44:42.660Z,98182.47
2023-01-30T20:47:44.140Z,98190.22
2023-01-30T20:50:45.598Z,98193.91
2023-01-30T20:53:52.884Z,98197.75
2023-01-30T20:56:54.632Z,98200.47
2023-01-30T20:59:56.137Z,98201.94
2023-01-30T21:02:58.921Z,98207.47
2023-01-30T21:06:01.525Z,98205.47
2023-01-30T21:09:04.774Z,98206.31
2023-01-30T21:12:07.232Z,98205.59
2023-01-30T21:15:09.375Z,98215.00
2023-01-30T21:18:10.900Z,98216.88
2023-01-30T21:21:39.296Z,98228.78
2023-01-30T21:24:40.789Z,98236.81
2023-01-30T21:27:46.344Z,98231.94
2023-01-30T21:30:48.015Z,98228.16
2023-01-30T21:33:49.624Z,98241.53
2023-01-30T21:37:09.616Z,98248.75
2023-01-30T21:40:30.619Z,98253.66
2023-01-30T21:43:32.043Z,98257.94
2023-01-30T21:46:38.125Z,98250.22
2023-01-30T21:49:40.656Z,98261.38
2023-01-30T21:52:42.162Z,98266.19
2023-01-30T21:55:48.955Z,98267.16
2023-01-30T21:58:50.426Z,98270.19
2023-01-30T22:01:51.912Z,98267.66
2023-01-30T22:04:53.408Z,98273.09
2023-01-30T22:07:54.843Z,98278.94
2023-01-30T22:11:09.403Z,98283.50
2023-01-30T22:14:14.634Z,98275.72
2023-01-30T22:17:16.184Z,98285.75
2023-01-30T22:20:17.687Z,98291.84
2023-01-30T22:23:19.119Z,98295.78
2023-01-30T22:26:23.914Z,98293.47
2023-01-30T22:29:25.444Z,98292.19
2023-01-30T22:32:26.906Z,98299.78
2023-01-30T22:35:28.356Z,98291.91
2023-01-30T22:38:29.897Z,98297.72
2023-01-30T22:41:37.148Z,98292.44
2023-01-30T22:44:39.778Z,98295.06
2023-01-30T22:47:41.261Z,98302.88
2023-01-30T22:50:42.688Z,98303.13
2023-01-30T22:53:53.383Z,98303.69
2023-01-30T22:56:54.911Z,98305.94
2023-01-30T22:59:56.345Z,98306.56
2023-01-30T23:02:57.856Z,98307.69
2023-01-30T23:06:01.207Z,98311.53
2023-01-30T23:09:04.772Z,98299.91
2023-01-30T23:12:24.880Z,98304.34
2023-01-30T23:15:26.365Z,98312.53
2023-01-30T23:18:46.765Z,98303.13
2023-01-30T23:21:48.294Z,98302.94
2023-01-30T23:24:50.968Z,98300.06
2023-01-30T23:27:52.526Z,98304.44
2023-01-30T23:30:54.030Z,98296.50
2023-01-30T23:33:59.579Z,98291.13
2023-01-30T23:37:01.105Z,98285.34
2023-01-30T23:40:02.578Z,98287.63
2023-01-30T23:43:04.383Z,98284.72
2023-01-30T23:46:33.361Z,98282.97
2023-01-30T23:49:35.347Z,98282.84
2023-01-30T23:52:36.865Z,98280.25
2023-01-30T23:55:38.668Z,98279.22
2023-01-30T23:58:40.910Z,98277.63
